createdAt,value
2022-10-23T00:01:28.705Z,85.00
2022-10-23T00:03:58.772Z,84.87
2022-10-23T00:06:26.450Z,84.11
2022-10-23T00:08:53.831Z,85.03
2022-10-23T00:11:26.750Z,84.23
2022-10-23T00:13:56.037Z,84.26
2022-10-23T00:16:23.390Z,85.12
2022-10-23T00:18:50.374Z,85.96
2022-10-23T00:21:18.652Z,85.98
2022-10-23T00:23:46.370Z,86.18
2022-10-23T00:26:17.179Z,86.04
2022-10-23T00:28:46.327Z,86.86
2022-10-23T00:31:13.647Z,86.66
2022-10-23T00:33:41.254Z,87.47
2022-10-23T00:36:10.869Z,88.91
2022-10-23T00:38:38.809Z,88.15
2022-10-23T00:41:07.442Z,87.92
2022-10-23T00:43:36.055Z,89.34
2022-10-23T00:46:03.041Z,88.74
2022-10-23T00:48:30.081Z,88.11
2022-10-23T00:50:57.395Z,88.16
2022-10-23T00:53:25.137Z,90.14
2022-10-23T00:55:55.000Z,90.11
2022-10-23T00:58:22.306Z,88.83
2022-10-23T01:00:52.378Z,89.41
2022-10-23T01:03:23.537Z,89.27
2022-10-23T01:06:11.193Z,89.66
2022-10-23T01:09:03.246Z,88.95
2022-10-23T01:11:42.439Z,88.83
2022-10-23T01:14:23.712Z,89.40
2022-10-23T01:17:17.970Z,89.19
2022-10-23T01:20:19.893Z,88.42
2022-10-23T01:22:53.790Z,88.76
2022-10-23T01:25:38.851Z,88.52
2022-10-23T01:28:11.762Z,88.65
2022-10-23T01:30:44.438Z,89.43
2022-10-23T01:33:36.919Z,89.45
2022-10-23T01:36:10.552Z,89.07
2022-10-23T01:38:56.631Z,88.76
2022-10-23T01:41:30.706Z,89.03
2022-10-23T01:44:11.375Z,88.91
2022-10-23T01:46:39.754Z,89.24
2022-10-23T01:49:11.932Z,89.67
2022-10-23T01:51:42.615Z,89.22
2022-10-23T01:54:12.664Z,89.02
2022-10-23T01:56:44.118Z,89.71
2022-10-23T01:59:16.442Z,89.43
2022-10-23T02:01:47.477Z,90.79
2022-10-23T02:04:19.340Z,91.71
2022-10-23T02:06:46.328Z,93.02
2022-10-23T02:09:14.410Z,91.81
2022-10-23T02:12:09.973Z,92.24
2022-10-23T02:14:49.329Z,92.03
2022-10-23T02:17:28.444Z,91.77
2022-10-23T02:20:08.691Z,91.67
2022-10-23T02:22:42.618Z,91.54
2022-10-23T02:25:16.275Z,91.31
2022-10-23T02:27:53.876Z,91.38
2022-10-23T02:30:24.323Z,92.33
2022-10-23T02:32:59.822Z,91.48
2022-10-23T02:35:26.767Z,92.71
2022-10-23T02:38:02.992Z,91.97
2022-10-23T02:40:41.280Z,92.16
2022-10-23T02:43:20.195Z,93.50
2022-10-23T02:45:56.133Z,94.38
2022-10-23T02:48:30.530Z,94.64
2022-10-23T02:51:12.034Z,94.38
2022-10-23T02:53:49.341Z,94.94
2022-10-23T02:56:38.618Z,94.81
2022-10-23T02:59:21.532Z,94.85
2022-10-23T03:01:56.208Z,95.90
2022-10-23T03:04:26.209Z,96.11
2022-10-23T03:06:53.282Z,95.76
2022-10-23T03:09:20.242Z,94.72
2022-10-23T03:11:47.166Z,95.40
2022-10-23T03:14:14.441Z,96.46
2022-10-23T03:16:41.375Z,95.52
2022-10-23T03:19:09.592Z,95.08
2022-10-23T03:21:37.123Z,94.36
2022-10-23T03:24:08.100Z,94.26
2022-10-23T03:26:40.570Z,93.50
2022-10-23T03:29:07.566Z,93.17
2022-10-23T03:31:40.743Z,93.13
2022-10-23T03:34:11.258Z,92.37
2022-10-23T03:36:40.650Z,91.66
2022-10-23T03:39:08.822Z,92.15
2022-10-23T03:41:35.786Z,93.53
2022-10-23T03:46:35.177Z,94.51
2022-10-23T03:49:02.153Z,94.29
2022-10-23T03:51:29.181Z,93.73
2022-10-23T03:53:57.829Z,93.44
2022-10-23T03:56:24.858Z,93.17
2022-10-23T03:58:51.756Z,92.78
2022-10-23T04:01:18.816Z,92.79
2022-10-23T04:03:46.443Z,93.17
2022-10-23T04:06:15.519Z,94.10
2022-10-23T04:08:46.002Z,94.02
2022-10-23T04:11:15.737Z,96.15
2022-10-23T04:13:46.259Z,95.26
2022-10-23T04:16:15.547Z,95.32
2022-10-23T04:18:44.438Z,96.72
2022-10-23T04:21:12.014Z,96.80
2022-10-23T04:23:39.357Z,96.07
2022-10-23T04:26:12.325Z,96.87
2022-10-23T04:28:39.591Z,96.46
2022-10-23T04:31:06.619Z,95.46
2022-10-23T04:33:33.937Z,96.27
2022-10-23T04:36:01.180Z,95.64
2022-10-23T04:38:28.199Z,95.12
2022-10-23T04:40:55.145Z,95.55
2022-10-23T04:43:23.106Z,95.22
2022-10-23T04:45:50.322Z,95.05
2022-10-23T04:48:17.863Z,95.05
2022-10-23T04:51:20.099Z,94.76
2022-10-23T04:54:12.885Z,93.90
2022-10-23T04:56:42.566Z,94.60
2022-10-23T04:59:14.840Z,93.73
2022-10-23T05:01:42.580Z,94.16
2022-10-23T05:04:09.933Z,94.50
2022-10-23T05:06:59.705Z,94.22
2022-10-23T05:09:45.267Z,94.08
2022-10-23T05:12:23.046Z,94.23
2022-10-23T05:14:50.011Z,94.09
2022-10-23T05:17:37.627Z,94.45
2022-10-23T05:20:09.867Z,94.29
2022-10-23T05:22:41.572Z,94.23
2022-10-23T05:25:11.350Z,95.24
2022-10-23T05:27:41.256Z,94.70
2022-10-23T05:30:11.992Z,95.44
2022-10-23T05:32:39.416Z,95.29
2022-10-23T05:35:19.616Z,95.80
2022-10-23T05:37:51.070Z,96.58
2022-10-23T05:40:21.605Z,95.90
2022-10-23T05:42:51.122Z,96.42
2022-10-23T05:45:21.784Z,95.64
2022-10-23T05:48:34.677Z,95.57
2022-10-23T05:51:23.024Z,95.43
2022-10-23T05:54:13.464Z,95.94
2022-10-23T05:57:02.295Z,95.31
2022-10-23T05:59:49.945Z,95.97
2022-10-23T06:02:25.900Z,95.51
2022-10-23T06:04:59.230Z,94.58
2022-10-23T06:07:59.690Z,94.04
2022-10-23T06:10:27.497Z,93.60
2022-10-23T06:12:57.367Z,93.57
2022-10-23T06:15:26.450Z,92.35
2022-10-23T06:18:05.463Z,91.94
2022-10-23T06:20:37.378Z,91.32
2022-10-23T06:23:18.119Z,91.65
2022-10-23T06:26:07.769Z,90.98
2022-10-23T06:28:48.600Z,91.03
2022-10-23T06:31:16.768Z,90.28
2022-10-23T06:33:43.655Z,89.05
2022-10-23T06:36:10.960Z,89.49
2022-10-23T06:38:40.954Z,88.71
2022-10-23T06:41:14.337Z,89.14
2022-10-23T06:43:41.819Z,88.13
2022-10-23T06:46:19.019Z,86.59
2022-10-23T06:49:05.896Z,86.19
2022-10-23T06:51:38.916Z,85.51
2022-10-23T06:54:11.831Z,85.45
2022-10-23T06:56:51.359Z,85.10
2022-10-23T06:59:22.580Z,85.66
2022-10-23T07:01:51.890Z,84.87
2022-10-23T07:04:19.027Z,85.25
2022-10-23T07:06:46.130Z,84.43
2022-10-23T07:09:13.284Z,83.84
2022-10-23T07:11:52.396Z,84.50
2022-10-23T07:14:23.429Z,83.30
2022-10-23T07:16:50.494Z,82.34
2022-10-23T07:19:17.591Z,82.98
2022-10-23T07:22:09.727Z,81.66
2022-10-23T07:24:44.760Z,81.84
2022-10-23T07:27:18.998Z,81.11
2022-10-23T07:29:52.626Z,81.04
2022-10-23T07:32:19.724Z,79.96
2022-10-23T07:37:49.791Z,79.04
2022-10-23T07:40:18.867Z,79.03
2022-10-23T07:42:45.905Z,78.10
2022-10-23T07:45:13.563Z,77.84
2022-10-23T07:47:43.534Z,77.53
2022-10-23T07:50:13.111Z,77.88
2022-10-23T07:52:39.978Z,77.39
2022-10-23T07:55:16.563Z,76.99
2022-10-23T07:57:49.951Z,76.18
2022-10-23T08:00:39.184Z,78.04
2022-10-23T08:03:13.649Z,75.52
2022-10-23T08:05:41.159Z,74.44
2022-10-23T08:08:09.060Z,73.21
2022-10-23T08:10:38.609Z,73.27
2022-10-23T08:13:13.087Z,73.74
2022-10-23T08:15:53.408Z,72.93
2022-10-23T08:18:52.861Z,73.01
2022-10-23T08:21:20.167Z,71.99
2022-10-23T08:23:49.189Z,71.14
2022-10-23T08:26:16.412Z,70.35
2022-10-23T08:28:43.329Z,70.38
2022-10-23T08:31:16.529Z,70.33
2022-10-23T08:33:56.736Z,68.66
2022-10-23T08:36:26.322Z,68.74
2022-10-23T08:38:55.479Z,68.40
2022-10-23T08:41:47.798Z,67.06
2022-10-23T08:44:21.331Z,66.37
2022-10-23T08:46:56.042Z,65.60
2022-10-23T08:49:50.151Z,64.75
2022-10-23T08:52:25.783Z,63.91
2022-10-23T08:55:04.764Z,63.60
2022-10-23T08:57:40.048Z,63.80
2022-10-23T09:00:15.124Z,63.74
2022-10-23T09:02:48.186Z,63.25
2022-10-23T09:05:30.717Z,60.17
2022-10-23T09:08:08.694Z,60.45
2022-10-23T09:10:46.019Z,61.92
2022-10-23T09:13:34.901Z,61.80
2022-10-23T09:16:28.108Z,59.80
2022-10-23T09:18:56.021Z,59.95
2022-10-23T09:21:29.070Z,59.33
2022-10-23T09:23:57.048Z,58.04
2022-10-23T09:26:23.976Z,58.21
2022-10-23T09:29:01.430Z,56.85
2022-10-23T09:31:28.378Z,56.75
2022-10-23T09:34:01.296Z,56.57
2022-10-23T09:36:29.638Z,56.33
2022-10-23T09:39:01.677Z,56.39
2022-10-23T09:41:38.576Z,56.26
2022-10-23T09:44:08.561Z,54.77
2022-10-23T09:46:43.102Z,54.26
2022-10-23T09:49:28.206Z,53.74
2022-10-23T09:51:59.902Z,55.44
2022-10-23T09:54:29.189Z,55.13
2022-10-23T09:57:03.561Z,54.31
2022-10-23T09:59:32.363Z,54.49
2022-10-23T10:02:01.729Z,53.53
2022-10-23T10:04:59.466Z,52.45
2022-10-23T10:07:31.139Z,51.62
2022-10-23T10:10:00.551Z,51.40
2022-10-23T10:12:39.402Z,49.57
2022-10-23T10:15:44.905Z,50.20
2022-10-23T10:18:19.508Z,49.12
2022-10-23T10:20:52.737Z,48.22
2022-10-23T10:23:33.357Z,48.83
2022-10-23T10:26:10.018Z,46.79
2022-10-23T10:28:42.490Z,46.52
2022-10-23T10:31:19.644Z,45.63
2022-10-23T10:34:14.631Z,41.92
2022-10-23T10:37:03.067Z,43.37
2022-10-23T10:40:20.376Z,41.66
2022-10-23T10:43:10.865Z,44.03
2022-10-23T10:55:15.187Z,39.97
2022-10-23T10:57:46.703Z,41.90
2022-10-23T11:00:14.719Z,41.66
2022-10-23T11:02:48.715Z,42.40
2022-10-23T11:05:25.775Z,40.72
2022-10-23T11:07:57.067Z,41.09
2022-10-23T11:10:24.375Z,40.85
2022-10-23T11:12:52.070Z,41.06
2022-10-23T11:15:25.916Z,41.24
2022-10-23T11:17:58.992Z,41.76
2022-10-23T11:20:51.242Z,40.38
2022-10-23T11:23:42.995Z,39.09
2022-10-23T11:26:16.221Z,40.85
2022-10-23T11:28:48.869Z,39.49
2022-10-23T11:31:46.422Z,37.65
2022-10-23T11:34:58.199Z,37.41
2022-10-23T11:37:26.925Z,38.92
2022-10-23T11:40:13.830Z,38.29
2022-10-23T11:42:41.024Z,38.25
2022-10-23T11:45:29.984Z,36.58
2022-10-23T11:48:35.247Z,37.18
2022-10-23T11:51:05.236Z,36.75
2022-10-23T11:53:32.389Z,36.43
2022-10-23T11:56:02.224Z,36.11
2022-10-23T11:58:42.489Z,33.20
2022-10-23T12:01:41.177Z,35.26
2022-10-23T12:04:14.043Z,35.51
2022-10-23T12:06:45.567Z,35.95
2022-10-23T12:09:45.304Z,35.01
2022-10-23T12:12:12.211Z,34.96
2022-10-23T12:14:40.643Z,34.81
2022-10-23T12:17:32.685Z,32.42
2022-10-23T12:20:12.498Z,34.01
2022-10-23T12:23:01.088Z,34.20
2022-10-23T12:25:57.180Z,32.20
2022-10-23T12:28:48.926Z,32.92
2022-10-23T12:31:45.566Z,32.79
2022-10-23T12:34:55.300Z,31.78
2022-10-23T12:37:42.923Z,32.54
2022-10-23T12:40:10.915Z,34.00
2022-10-23T12:42:38.472Z,34.39
2022-10-23T12:45:25.077Z,31.52
2022-10-23T12:47:52.922Z,32.96
2022-10-23T12:50:25.414Z,32.77
2022-10-23T12:52:53.176Z,32.76
2022-10-23T12:55:20.689Z,33.05
2022-10-23T12:57:47.934Z,33.20
2022-10-23T13:00:18.681Z,33.46
2022-10-23T13:02:45.993Z,33.17
2022-10-23T13:05:19.766Z,33.62
2022-10-23T13:07:48.457Z,33.31
2022-10-23T13:10:21.367Z,32.66
2022-10-23T13:13:02.746Z,31.62
2022-10-23T13:15:44.139Z,31.94
2022-10-23T13:18:14.557Z,32.41
2022-10-23T13:21:03.305Z,31.96
2022-10-23T13:23:33.377Z,32.54
2022-10-23T13:26:18.680Z,32.39
2022-10-23T13:28:46.446Z,32.21
2022-10-23T13:31:13.353Z,31.80
2022-10-23T13:33:44.179Z,31.55
2022-10-23T13:36:13.820Z,30.81
2022-10-23T13:38:42.040Z,30.82
2022-10-23T13:41:16.515Z,30.83
2022-10-23T13:43:44.670Z,29.61
2022-10-23T13:46:21.185Z,29.21
2022-10-23T13:48:48.615Z,29.98
2022-10-23T13:51:22.591Z,29.75
2022-10-23T13:53:50.138Z,29.70
2022-10-23T13:56:19.511Z,29.76
2022-10-23T13:58:46.593Z,29.64
2022-10-23T14:01:24.954Z,29.60
2022-10-23T14:03:53.371Z,30.38
2022-10-23T14:06:20.401Z,30.21
2022-10-23T14:08:47.410Z,30.75
2022-10-23T14:11:16.696Z,30.21
2022-10-23T14:13:43.759Z,29.94
2022-10-23T14:16:13.545Z,30.69
2022-10-23T14:18:40.893Z,30.84
2022-10-23T14:21:09.561Z,30.78
2022-10-23T14:23:36.588Z,31.10
2022-10-23T14:26:12.426Z,31.08
2022-10-23T14:28:39.562Z,31.48
2022-10-23T14:31:08.522Z,31.76
2022-10-23T14:33:35.655Z,31.90
2022-10-23T14:36:02.997Z,32.51
2022-10-23T14:38:29.932Z,32.73
2022-10-23T14:40:56.953Z,33.74
2022-10-23T14:43:24.618Z,33.79
2022-10-23T14:45:52.309Z,34.10
2022-10-23T14:48:19.326Z,34.29
2022-10-23T14:50:48.355Z,34.42
2022-10-23T14:53:16.216Z,34.79
2022-10-23T14:55:43.113Z,35.13
2022-10-23T14:58:10.103Z,35.07
2022-10-23T15:00:37.040Z,35.16
2022-10-23T15:03:03.987Z,35.04
2022-10-23T15:05:30.927Z,35.58
2022-10-23T15:07:59.152Z,35.17
2022-10-23T15:10:26.162Z,35.48
2022-10-23T15:12:53.080Z,35.40
2022-10-23T15:15:20.020Z,35.51
2022-10-23T15:17:46.896Z,35.32
2022-10-23T15:20:13.818Z,35.82
2022-10-23T15:22:40.868Z,35.79
2022-10-23T15:25:08.418Z,36.25
2022-10-23T15:27:35.398Z,36.60
2022-10-23T15:30:02.540Z,37.18
2022-10-23T15:32:29.547Z,38.01
2022-10-23T15:34:58.352Z,38.80
2022-10-23T15:37:25.328Z,39.45
2022-10-23T15:39:52.517Z,40.36
2022-10-23T15:42:19.571Z,40.63
2022-10-23T15:44:47.139Z,40.95
2022-10-23T15:47:14.189Z,41.37
2022-10-23T15:49:41.228Z,41.44
2022-10-23T15:54:37.785Z,42.42
2022-10-23T15:57:05.007Z,43.36
2022-10-23T15:59:32.445Z,43.96
2022-10-23T16:01:59.899Z,45.18
2022-10-23T16:04:28.707Z,46.21
2022-10-23T16:06:55.742Z,47.28
2022-10-23T16:09:22.699Z,47.86
2022-10-23T16:11:49.632Z,48.54
2022-10-23T16:14:17.623Z,49.54
2022-10-23T16:16:44.796Z,50.05
2022-10-23T16:19:12.561Z,51.05
2022-10-23T16:21:39.947Z,51.60
2022-10-23T16:24:08.332Z,52.07
2022-10-23T16:26:36.654Z,51.98
2022-10-23T16:29:06.297Z,52.20
2022-10-23T16:31:33.793Z,52.32
2022-10-23T16:34:02.111Z,52.73
2022-10-23T16:36:29.776Z,52.94
2022-10-23T16:39:07.532Z,52.76
2022-10-23T16:41:53.390Z,53.29
2022-10-23T16:44:21.055Z,53.84
2022-10-23T16:47:00.590Z,54.41
2022-10-23T16:49:29.915Z,54.94
2022-10-23T16:51:56.861Z,56.26
2022-10-23T16:54:23.850Z,56.36
2022-10-23T16:56:50.920Z,57.02
2022-10-23T16:59:17.875Z,57.78
2022-10-23T17:01:45.107Z,58.01
2022-10-23T17:04:12.061Z,58.49
2022-10-23T17:06:39.146Z,58.66
2022-10-23T17:09:06.205Z,58.89
2022-10-23T17:11:36.035Z,58.89
2022-10-23T17:14:08.800Z,59.28
2022-10-23T17:16:40.399Z,59.02
2022-10-23T17:19:20.547Z,59.71
2022-10-23T17:21:55.561Z,59.75
2022-10-23T17:24:23.257Z,59.93
2022-10-23T17:26:50.514Z,59.97
2022-10-23T17:29:18.502Z,60.55
2022-10-23T17:31:47.982Z,61.08
2022-10-23T17:34:18.270Z,61.41
2022-10-23T17:36:48.179Z,61.82
2022-10-23T17:39:17.580Z,61.97
2022-10-23T17:41:45.268Z,62.30
2022-10-23T17:44:12.602Z,62.48
2022-10-23T17:46:39.595Z,62.60
2022-10-23T17:49:06.885Z,62.92
2022-10-23T17:51:35.712Z,63.40
2022-10-23T17:54:05.743Z,63.54
2022-10-23T17:56:34.044Z,63.66
2022-10-23T17:59:04.568Z,64.12
2022-10-23T18:01:32.059Z,64.44
2022-10-23T18:04:05.614Z,64.75
2022-10-23T18:06:36.895Z,65.14
2022-10-23T18:09:05.493Z,64.97
2022-10-23T18:11:35.655Z,65.22
2022-10-23T18:14:03.731Z,65.43
2022-10-23T18:16:30.758Z,65.55
2022-10-23T18:19:00.550Z,65.61
2022-10-23T18:21:28.132Z,65.76
2022-10-23T18:23:55.290Z,66.21
2022-10-23T18:26:26.486Z,65.75
2022-10-23T18:28:59.382Z,66.42
2022-10-23T18:31:30.449Z,66.89
2022-10-23T18:33:59.174Z,67.01
2022-10-23T18:36:28.941Z,66.83
2022-10-23T18:41:28.190Z,66.98
2022-10-23T18:43:55.280Z,66.75
2022-10-23T18:46:22.472Z,66.91
2022-10-23T18:48:52.754Z,66.94
2022-10-23T18:51:29.872Z,67.14
2022-10-23T18:53:57.749Z,67.37
2022-10-23T18:56:26.796Z,67.56
2022-10-23T18:58:58.230Z,67.69
2022-10-23T19:01:27.348Z,67.51
2022-10-23T19:06:23.830Z,67.15
2022-10-23T19:08:51.217Z,67.65
2022-10-23T19:11:21.307Z,67.40
2022-10-23T19:13:48.427Z,67.31
2022-10-23T19:16:18.221Z,67.12
2022-10-23T19:18:53.606Z,67.20
2022-10-23T19:21:24.415Z,67.53
2022-10-23T19:23:52.543Z,67.39
2022-10-23T19:26:19.825Z,67.30
2022-10-23T19:28:49.109Z,68.07
2022-10-23T19:31:16.341Z,68.07
2022-10-23T19:33:43.497Z,67.67
2022-10-23T19:36:14.108Z,67.92
2022-10-23T19:38:42.311Z,68.16
2022-10-23T19:41:09.972Z,68.08
2022-10-23T19:43:37.992Z,68.18
2022-10-23T19:46:09.403Z,68.19
2022-10-23T19:48:42.577Z,68.37
2022-10-23T19:51:09.725Z,68.27
2022-10-23T19:53:36.832Z,68.32
2022-10-23T19:56:06.675Z,68.34
2022-10-23T19:58:34.118Z,68.72
2022-10-23T20:01:08.862Z,68.90
2022-10-23T20:03:36.023Z,68.65
2022-10-23T20:06:03.313Z,68.55
2022-10-23T20:08:32.753Z,68.62
2022-10-23T20:11:02.125Z,68.81
2022-10-23T20:13:29.075Z,68.81
2022-10-23T20:15:56.049Z,68.59
2022-10-23T20:18:23.030Z,69.07
2022-10-23T20:20:49.966Z,69.30
2022-10-23T20:23:16.968Z,69.35
2022-10-23T20:25:44.028Z,69.55
2022-10-23T20:28:14.262Z,70.14
2022-10-23T20:30:44.151Z,70.54
2022-10-23T20:33:11.100Z,70.54
2022-10-23T20:35:42.723Z,70.14
2022-10-23T20:38:10.261Z,70.04
2022-10-23T20:40:37.490Z,70.26
2022-10-23T20:43:04.492Z,70.77
2022-10-23T20:45:31.487Z,71.05
2022-10-23T20:47:58.402Z,71.04
2022-10-23T20:50:25.392Z,71.68
2022-10-23T20:52:52.455Z,71.53
2022-10-23T20:55:20.009Z,71.64
2022-10-23T20:57:47.362Z,71.58
2022-10-23T21:00:15.736Z,71.89
2022-10-23T21:02:45.766Z,72.13
2022-10-23T21:05:14.307Z,72.34
2022-10-23T21:07:41.177Z,72.52
2022-10-23T21:10:08.401Z,72.59
2022-10-23T21:12:35.371Z,72.77
2022-10-23T21:15:02.273Z,73.93
2022-10-23T21:17:35.886Z,73.77
2022-10-23T21:20:03.284Z,73.71
2022-10-23T21:22:30.283Z,73.79
2022-10-23T21:24:58.572Z,73.84
2022-10-23T21:27:25.870Z,73.60
2022-10-23T21:29:52.767Z,74.15
2022-10-23T21:32:20.962Z,74.30
2022-10-23T21:34:47.914Z,74.70
2022-10-23T21:37:15.216Z,75.38
2022-10-23T21:39:43.270Z,75.31
2022-10-23T21:42:12.184Z,75.03
2022-10-23T21:44:39.096Z,75.12
2022-10-23T21:47:06.064Z,74.96
2022-10-23T21:49:33.098Z,74.48
2022-10-23T21:52:01.615Z,74.51
2022-10-23T21:54:29.201Z,74.90
2022-10-23T21:56:56.766Z,74.76
2022-10-23T21:59:29.982Z,74.88
2022-10-23T22:01:59.935Z,74.86
2022-10-23T22:04:27.774Z,74.89
2022-10-23T22:06:55.453Z,75.39
2022-10-23T22:09:23.730Z,75.75
2022-10-23T22:11:53.445Z,76.37
2022-10-23T22:14:21.333Z,76.57
2022-10-23T22:16:48.753Z,76.73
2022-10-23T22:19:17.444Z,76.77
2022-10-23T22:21:44.714Z,77.18
2022-10-23T22:24:12.446Z,77.19
2022-10-23T22:26:42.918Z,77.09
2022-10-23T22:29:14.211Z,77.34
2022-10-23T22:31:44.232Z,77.38
2022-10-23T22:34:26.677Z,77.25
2022-10-23T22:37:01.051Z,77.33
2022-10-23T22:39:27.969Z,77.50
2022-10-23T22:41:54.914Z,77.80
2022-10-23T22:44:21.924Z,78.14
2022-10-23T22:46:48.932Z,78.34
2022-10-23T22:49:16.605Z,78.62
2022-10-23T22:51:43.586Z,78.50
2022-10-23T22:54:10.635Z,78.64
2022-10-23T22:56:37.602Z,78.58
2022-10-23T22:59:05.141Z,78.83
2022-10-23T23:01:41.512Z,78.73
2022-10-23T23:04:26.081Z,79.01
2022-10-23T23:06:55.497Z,79.89
2022-10-23T23:09:22.426Z,80.08
2022-10-23T23:11:52.807Z,79.97
2022-10-23T23:14:23.725Z,79.62
2022-10-23T23:16:53.285Z,79.84
2022-10-23T23:19:23.027Z,80.29
2022-10-23T23:21:50.593Z,79.82
2022-10-23T23:24:17.474Z,79.86
2022-10-23T23:26:44.403Z,80.08
2022-10-23T23:29:11.704Z,79.79
2022-10-23T23:31:38.715Z,79.89
2022-10-23T23:34:05.653Z,79.44
2022-10-23T23:36:33.984Z,79.60
2022-10-23T23:39:01.469Z,79.64
2022-10-23T23:41:29.177Z,79.91
2022-10-23T23:43:57.977Z,79.64
2022-10-23T23:46:25.766Z,79.54
2022-10-23T23:48:52.716Z,79.77
2022-10-23T23:51:22.328Z,80.14
2022-10-23T23:53:50.140Z,80.23
2022-10-23T23:56:18.108Z,80.17
2022-10-23T23:58:45.073Z,80.43
